createdAt,value
2022-12-19T00:01:53.728Z,100091.75
2022-12-19T00:05:56.058Z,100089.44
2022-12-19T00:09:58.689Z,100090.31
2022-12-19T00:14:01.224Z,100093.06
2022-12-19T00:18:02.933Z,100097.38
2022-12-19T00:22:10.904Z,100094.81
2022-12-19T00:26:16.845Z,100085.31
2022-12-19T00:30:18.425Z,100083.75
2022-12-19T00:34:33.725Z,100079.59
2022-12-19T00:38:38.730Z,100072.03
2022-12-19T00:42:51.708Z,100078.09
2022-12-19T00:46:56.618Z,100085.81
2022-12-19T00:51:02.319Z,100087.72
2022-12-19T00:55:03.874Z,100082.88
2022-12-19T00:59:12.933Z,100088.16
2022-12-19T01:03:15.655Z,100088.31
2022-12-19T01:07:17.165Z,100077.47
2022-12-19T01:11:38.759Z,100068.22
2022-12-19T01:15:41.295Z,100061.59
2022-12-19T01:19:44.554Z,100067.66
2022-12-19T01:23:46.317Z,100069.53
2022-12-19T01:27:47.773Z,100063.63
2022-12-19T01:31:49.187Z,100061.22
2022-12-19T01:35:50.650Z,100069.03
2022-12-19T01:39:52.088Z,100062.41
2022-12-19T01:44:05.929Z,100057.53
2022-12-19T01:48:24.678Z,100056.91
2022-12-19T01:52:26.198Z,100055.31
2022-12-19T01:56:32.945Z,100057.22
2022-12-19T02:00:34.949Z,100049.63
2022-12-19T02:04:36.789Z,100055.69
2022-12-19T02:08:41.034Z,100056.63
2022-12-19T02:12:45.302Z,100056.78
2022-12-19T02:16:53.327Z,100049.13
2022-12-19T02:21:38.572Z,100048.25
2022-12-19T02:26:07.954Z,100042.34
2022-12-19T02:30:15.353Z,100038.16
2022-12-19T02:34:29.813Z,100034.00
2022-12-19T02:38:39.499Z,100033.13
2022-12-19T02:42:45.649Z,100028.91
2022-12-19T02:46:49.849Z,100048.50
2022-12-19T02:50:52.254Z,100045.97
2022-12-19T02:55:00.280Z,100048.50
2022-12-19T02:59:04.589Z,100037.59
2022-12-19T03:03:16.053Z,100048.00
2022-12-19T03:07:37.100Z,100049.81
2022-12-19T03:11:41.865Z,100042.31
2022-12-19T03:15:44.554Z,100050.03
2022-12-19T03:19:46.110Z,100058.75
2022-12-19T03:23:49.961Z,100053.72
2022-12-19T03:27:53.677Z,100041.91
2022-12-19T03:31:57.689Z,100046.22
2022-12-19T03:36:03.969Z,100045.47
2022-12-19T03:40:13.844Z,100037.09
2022-12-19T03:44:17.026Z,100039.72
2022-12-19T03:48:28.113Z,100031.34
2022-12-19T03:52:41.854Z,100016.91
2022-12-19T03:57:06.806Z,100010.16
2022-12-19T04:01:09.767Z,100011.03
2022-12-19T04:05:20.627Z,100005.75
2022-12-19T04:09:23.775Z,99993.84
2022-12-19T04:13:41.668Z,99998.16
2022-12-19T04:18:06.350Z,99990.50
2022-12-19T04:22:20.608Z,99989.81
2022-12-19T04:26:23.937Z,99978.88
2022-12-19T04:30:25.994Z,99992.63
2022-12-19T04:34:27.445Z,100001.25
2022-12-19T04:38:28.870Z,100000.38
2022-12-19T04:42:30.462Z,99993.66
2022-12-19T04:46:32.516Z,99977.75
2022-12-19T04:50:34.443Z,99976.16
2022-12-19T04:54:36.177Z,99965.22
2022-12-19T04:58:37.543Z,99960.19
2022-12-19T05:02:39.892Z,99965.41
2022-12-19T05:06:41.473Z,99966.28
2022-12-19T05:10:42.867Z,99958.69
2022-12-19T05:14:45.484Z,99954.53
2022-12-19T05:18:46.966Z,99953.78
2022-12-19T05:22:48.337Z,99968.31
2022-12-19T05:26:50.001Z,99978.69
2022-12-19T05:30:52.642Z,99974.00
2022-12-19T05:34:54.132Z,99966.47
2022-12-19T05:38:55.781Z,99976.69
2022-12-19T05:42:57.329Z,99969.88
2022-12-19T05:46:59.273Z,99973.38
2022-12-19T05:51:01.400Z,99970.25
2022-12-19T05:55:02.839Z,99978.06
2022-12-19T05:59:04.323Z,99976.44
2022-12-19T06:03:05.972Z,99974.81
2022-12-19T06:07:07.477Z,99965.53
2022-12-19T06:11:10.017Z,99967.28
2022-12-19T06:15:11.699Z,99966.47
2022-12-19T06:19:13.147Z,99963.13
2022-12-19T06:23:14.543Z,99964.88
2022-12-19T06:27:16.004Z,99970.22
2022-12-19T06:31:19.440Z,99977.94
2022-12-19T06:35:20.808Z,99958.44
2022-12-19T06:39:22.561Z,99966.16
2022-12-19T06:43:26.112Z,99952.59
2022-12-19T06:47:27.534Z,99963.81
2022-12-19T06:51:29.373Z,99957.31
2022-12-19T06:55:31.750Z,99957.31
2022-12-19T06:59:33.352Z,99957.31
2022-12-19T07:03:41.451Z,99963.34
2022-12-19T07:07:42.828Z,99963.41
2022-12-19T07:11:44.226Z,99957.50
2022-12-19T07:15:45.630Z,99957.63
2022-12-19T07:19:47.195Z,99950.13
2022-12-19T07:23:48.768Z,99959.50
2022-12-19T07:27:51.625Z,99978.31
2022-12-19T07:31:53.759Z,99973.22
2022-12-19T07:35:55.838Z,99977.66
2022-12-19T07:39:57.184Z,99972.69
2022-12-19T07:43:58.547Z,99984.66
2022-12-19T07:48:01.713Z,99982.28
2022-12-19T07:52:03.321Z,99982.59
2022-12-19T07:56:04.854Z,99978.53
2022-12-19T08:00:07.396Z,99972.78
2022-12-19T08:04:09.714Z,99965.28
2022-12-19T08:08:11.067Z,99968.13
2022-12-19T08:12:12.600Z,99971.88
2022-12-19T08:16:15.274Z,99977.97
2022-12-19T08:20:16.654Z,99989.16
2022-12-19T08:24:18.403Z,99987.63
2022-12-19T08:28:19.861Z,99994.59
2022-12-19T08:32:24.920Z,99997.47
2022-12-19T08:36:26.311Z,99976.44
2022-12-19T08:40:30.163Z,99962.25
2022-12-19T08:44:31.627Z,99964.31
2022-12-19T08:48:34.272Z,99962.03
2022-12-19T08:52:35.729Z,99951.22
2022-12-19T08:56:37.122Z,99954.84
2022-12-19T09:00:52.095Z,99956.78
2022-12-19T09:06:03.700Z,99954.38
2022-12-19T09:09:17.670Z,99950.28
2022-12-19T09:13:19.096Z,99943.69
2022-12-19T09:17:20.949Z,99943.03
2022-12-19T09:21:25.281Z,99928.00
2022-12-19T09:25:26.720Z,99924.88
2022-12-19T09:29:34.904Z,99927.56
2022-12-19T09:33:43.163Z,99925.00
2022-12-19T09:37:45.333Z,99936.22
2022-12-19T09:41:46.792Z,99920.16
2022-12-19T09:46:16.393Z,99922.88
2022-12-19T09:50:41.424Z,99912.13
2022-12-19T09:55:11.313Z,99914.09
2022-12-19T09:59:50.255Z,99913.38
2022-12-19T10:04:03.064Z,99920.41
2022-12-19T10:08:17.583Z,99912.94
2022-12-19T10:12:47.330Z,99901.25
2022-12-19T10:17:29.638Z,99895.63
2022-12-19T10:22:07.634Z,99899.44
2022-12-19T10:26:10.877Z,99894.81
2022-12-19T10:30:12.303Z,99886.69
2022-12-19T10:34:41.487Z,99872.44
2022-12-19T10:38:53.230Z,99867.72
2022-12-19T10:43:10.977Z,99861.25
2022-12-19T10:47:16.731Z,99858.19
2022-12-19T10:51:24.669Z,99853.44
2022-12-19T10:55:47.682Z,99852.91
2022-12-19T11:00:14.285Z,99837.84
2022-12-19T11:04:37.120Z,99844.19
2022-12-19T11:08:38.497Z,99835.88
2022-12-19T11:16:23.013Z,99834.59
2022-12-19T11:25:54.852Z,99824.81
2022-12-19T11:30:06.584Z,99822.59
2022-12-19T11:30:43.367Z,99822.03
2022-12-19T11:32:32.123Z,99805.94
2022-12-19T11:35:56.759Z,99814.84
2022-12-19T11:40:27.987Z,99816.75
2022-12-19T11:44:40.057Z,99808.34
2022-12-19T11:48:50.914Z,99813.59
2022-12-19T11:53:19.147Z,99811.97
2022-12-19T11:57:21.038Z,99820.59
2022-12-19T12:01:53.491Z,99812.22
2022-12-19T12:05:56.883Z,99804.50
2022-12-19T12:13:35.590Z,99799.31
2022-12-19T12:24:56.143Z,99797.63
2022-12-19T12:31:07.647Z,99790.88
2022-12-19T12:31:38.257Z,99786.06
2022-12-19T12:35:15.251Z,99774.25
2022-12-19T12:35:16.760Z,99772.88
2022-12-19T12:38:18.351Z,99753.50
2022-12-19T12:42:08.758Z,99742.84
2022-12-19T12:46:16.977Z,99765.06
2022-12-19T12:50:21.556Z,99766.69
2022-12-19T12:58:42.116Z,99770.47
2022-12-19T13:03:05.404Z,99771.59
2022-12-19T13:07:15.975Z,99764.75
2022-12-19T13:11:39.110Z,99752.75
2022-12-19T13:15:43.903Z,99756.19
2022-12-19T13:20:16.359Z,99756.19
2022-12-19T13:24:21.105Z,99752.75
2022-12-19T13:28:22.409Z,99756.25
2022-12-19T13:32:23.970Z,99757.13
2022-12-19T13:39:52.265Z,99758.88
2022-12-19T13:42:01.250Z,99753.66
2022-12-19T13:46:05.900Z,99747.56
2022-12-19T13:50:18.537Z,99757.06
2022-12-19T13:54:23.433Z,99741.50
2022-12-19T13:58:33.389Z,99739.78
2022-12-19T14:02:44.118Z,99739.78
2022-12-19T14:06:47.958Z,99742.59
2022-12-19T14:11:41.533Z,99744.38
2022-12-19T14:15:29.803Z,99738.25
2022-12-19T14:19:41.817Z,99745.88
2022-12-19T14:23:44.614Z,99738.84
2022-12-19T14:28:25.684Z,99733.59
2022-12-19T14:33:43.871Z,99726.59
2022-12-19T14:36:51.565Z,99738.53
2022-12-19T14:41:07.288Z,99738.25
2022-12-19T14:54:00.180Z,99737.41
2022-12-19T14:54:32.218Z,99738.88
2022-12-19T14:58:53.443Z,99752.56
2022-12-19T15:03:02.232Z,99756.56
2022-12-19T15:07:12.127Z,99764.22
2022-12-19T15:12:05.783Z,99749.38
2022-12-19T15:16:30.502Z,99754.56
2022-12-19T15:20:31.948Z,99753.88
2022-12-19T15:24:33.563Z,99761.72
2022-12-19T15:28:37.921Z,99757.53
2022-12-19T15:32:39.328Z,99760.75
2022-12-19T15:36:40.693Z,99745.81
2022-12-19T15:40:45.319Z,99746.50
2022-12-19T15:44:48.263Z,99742.25
2022-12-19T15:48:50.863Z,99748.03
2022-12-19T15:52:54.168Z,99742.84
2022-12-19T15:56:56.648Z,99746.03
2022-12-19T16:01:01.833Z,99756.00
2022-12-19T16:05:04.788Z,99753.25
2022-12-19T16:09:19.802Z,99752.13
2022-12-19T16:13:25.253Z,99748.28
2022-12-19T16:17:29.205Z,99757.47
2022-12-19T16:21:34.294Z,99762.53
2022-12-19T16:25:43.799Z,99757.69
2022-12-19T16:29:46.811Z,99747.16
2022-12-19T16:33:48.524Z,99744.50
2022-12-19T16:37:50.210Z,99733.50
2022-12-19T16:41:51.650Z,99739.34
2022-12-19T16:45:58.135Z,99731.91
2022-12-19T16:50:07.533Z,99722.47
2022-12-19T16:54:11.257Z,99713.88
2022-12-19T16:58:20.032Z,99712.56
2022-12-19T17:02:40.436Z,99728.44
2022-12-19T17:06:42.488Z,99714.84
2022-12-19T17:10:47.120Z,99716.59
2022-12-19T17:14:48.545Z,99725.19
2022-12-19T17:18:50.605Z,99723.41
2022-12-19T17:22:52.561Z,99711.94
2022-12-19T17:26:54.853Z,99713.34
2022-12-19T17:30:59.370Z,99702.78
2022-12-19T17:35:01.163Z,99709.59
2022-12-19T17:39:02.715Z,99713.97
2022-12-19T17:43:04.563Z,99719.22
2022-12-19T17:47:06.027Z,99717.19
2022-12-19T17:51:09.498Z,99718.34
2022-12-19T17:55:17.683Z,99718.66
2022-12-19T17:59:19.416Z,99728.94
2022-12-19T18:03:24.524Z,99728.72
2022-12-19T18:07:26.172Z,99734.31
2022-12-19T18:11:27.529Z,99725.31
2022-12-19T18:15:29.034Z,99722.16
2022-12-19T18:19:32.248Z,99718.91
2022-12-19T18:23:33.852Z,99725.16
2022-12-19T18:27:35.223Z,99723.63
2022-12-19T18:31:37.441Z,99724.22
2022-12-19T18:35:41.451Z,99726.66
2022-12-19T18:39:43.989Z,99733.16
2022-12-19T18:43:45.822Z,99729.59
2022-12-19T18:57:30.217Z,99736.22
2022-12-19T19:01:31.724Z,99743.88
2022-12-19T19:05:35.648Z,99742.75
2022-12-19T19:09:37.298Z,99738.47
2022-12-19T19:13:38.679Z,99738.97
2022-12-19T19:17:41.593Z,99738.38
2022-12-19T19:21:43.551Z,99732.03
2022-12-19T19:25:45.054Z,99729.63
2022-12-19T19:29:46.522Z,99734.97
2022-12-19T19:33:53.044Z,99736.09
2022-12-19T19:37:58.985Z,99725.06
2022-12-19T19:42:01.589Z,99734.66
2022-12-19T19:46:03.217Z,99736.44
2022-12-19T19:50:06.956Z,99733.91
2022-12-19T19:54:08.674Z,99740.72
2022-12-19T19:58:10.147Z,99737.22
2022-12-19T20:02:12.761Z,99733.06
2022-12-19T20:06:19.379Z,99735.78
2022-12-19T20:10:20.864Z,99738.44
2022-12-19T20:14:22.415Z,99739.34
2022-12-19T20:18:24.157Z,99741.69
2022-12-19T20:22:25.799Z,99737.19
2022-12-19T20:26:27.239Z,99748.50
2022-12-19T20:30:28.567Z,99752.06
2022-12-19T20:34:29.991Z,99753.78
2022-12-19T20:38:31.500Z,99751.03
2022-12-19T20:42:32.984Z,99752.78
2022-12-19T20:46:34.363Z,99753.63
2022-12-19T20:50:41.316Z,99762.78
2022-12-19T20:54:44.337Z,99763.75
2022-12-19T20:58:46.165Z,99752.69
2022-12-19T21:03:25.726Z,99752.88
2022-12-19T21:07:09.148Z,99754.69
2022-12-19T21:11:11.451Z,99751.81
2022-12-19T21:15:12.905Z,99742.38
2022-12-19T21:19:14.288Z,99745.97
2022-12-19T21:23:15.928Z,99758.91
2022-12-19T21:27:17.355Z,99760.75
2022-12-19T21:31:22.705Z,99748.75
2022-12-19T21:35:24.227Z,99752.34
2022-12-19T21:39:25.684Z,99753.19
2022-12-19T21:43:27.050Z,99747.13
2022-12-19T21:47:28.408Z,99741.22
2022-12-19T21:51:31.690Z,99742.94
2022-12-19T21:55:33.160Z,99736.03
2022-12-19T21:59:34.660Z,99729.16
2022-12-19T22:03:37.556Z,99723.00
2022-12-19T22:07:38.971Z,99714.44
2022-12-19T22:11:41.409Z,99717.22
2022-12-19T22:15:42.752Z,99723.25
2022-12-19T22:19:44.515Z,99722.41
2022-12-19T22:23:45.988Z,99723.28
2022-12-19T22:27:47.357Z,99724.19
2022-12-19T22:31:49.576Z,99722.50
2022-12-19T22:35:51.302Z,99715.63
2022-12-19T22:39:52.805Z,99711.41
2022-12-19T22:43:55.447Z,99709.81
2022-12-19T22:47:56.760Z,99701.31
2022-12-19T22:51:58.170Z,99685.78
2022-12-19T22:56:08.644Z,99681.47
2022-12-19T23:00:13.954Z,99672.03
2022-12-19T23:04:16.529Z,99668.69
2022-12-19T23:08:17.965Z,99678.22
2022-12-19T23:12:19.646Z,99677.44
2022-12-19T23:16:21.484Z,99666.31
2022-12-19T23:20:22.858Z,99657.69
2022-12-19T23:24:25.220Z,99662.06
2022-12-19T23:28:27.568Z,99673.41
2022-12-19T23:32:29.025Z,99668.28
2022-12-19T23:37:10.131Z,99670.94
2022-12-19T23:40:52.142Z,99666.63
2022-12-19T23:44:53.622Z,99661.47
2022-12-19T23:48:55.470Z,99662.25
2022-12-19T23:52:56.804Z,99653.63
2022-12-19T23:56:58.206Z,99654.56
